sensor_id;sensor_type;location;lat;lon;timestamp;pressure;altitude;pressure_sealevel;temperature;humidity
21203;BME280;10759;51.982;9.232;2023-02-02T00:02:21;100433.56;;;5.28;99.81
21203;BME280;10759;51.982;9.232;2023-02-02T00:04:49;100400.03;;;5.21;100.00
21203;BME280;10759;51.982;9.232;2023-02-02T00:07:17;100405.19;;;5.32;100.00
21203;BME280;10759;51.982;9.232;2023-02-02T00:09:45;100422.91;;;5.31;100.00
21203;BME280;10759;51.982;9.232;2023-02-02T00:12:13;100416.81;;;5.25;100.00
21203;BME280;10759;51.982;9.232;2023-02-02T00:14:42;100418.81;;;5.09;100.00
21203;BME280;10759;51.982;9.232;2023-02-02T00:17:10;100388.91;;;4.98;100.00
21203;BME280;10759;51.982;9.232;2023-02-02T00:19:38;100407.38;;;5.04;100.00
21203;BME280;10759;51.982;9.232;2023-02-02T00:22:06;100414.31;;;5.14;100.00
21203;BME280;10759;51.982;9.232;2023-02-02T00:24:34;100398.50;;;5.06;100.00
21203;BME280;10759;51.982;9.232;2023-02-02T00:27:02;100424.97;;;5.12;100.00
21203;BME280;10759;51.982;9.232;2023-02-02T00:29:30;100397.56;;;5.09;100.00
21203;BME280;10759;51.982;9.232;2023-02-02T00:32:00;100416.09;;;5.15;100.00
21203;BME280;10759;51.982;9.232;2023-02-02T00:34:28;100423.25;;;5.10;100.00
21203;BME280;10759;51.982;9.232;2023-02-02T00:36:56;100422.34;;;5.09;100.00
21203;BME280;10759;51.982;9.232;2023-02-02T00:39:24;100412.75;;;5.01;100.00
21203;BME280;10759;51.982;9.232;2023-02-02T00:41:53;100389.09;;;4.84;100.00
21203;BME280;10759;51.982;9.232;2023-02-02T00:44:21;100426.88;;;5.03;100.00
21203;BME280;10759;51.982;9.232;2023-02-02T00:47:08;100400.56;;;4.87;100.00
21203;BME280;10759;51.982;9.232;2023-02-02T00:49:36;100430.59;;;4.89;100.00
21203;BME280;10759;51.982;9.232;2023-02-02T00:52:04;100346.31;;;4.43;100.00
21203;BME280;10759;51.982;9.232;2023-02-02T00:54:32;100379.63;;;4.64;100.00
21203;BME280;10759;51.982;9.232;2023-02-02T00:57:01;100342.84;;;4.38;100.00
21203;BME280;10759;51.982;9.232;2023-02-02T00:59:30;100432.31;;;4.93;100.00
21203;BME280;10759;51.982;9.232;2023-02-02T01:01:58;100407.78;;;4.78;100.00
21203;BME280;10759;51.982;9.232;2023-02-02T01:04:29;100436.84;;;4.87;100.00
21203;BME280;10759;51.982;9.232;2023-02-02T01:06:57;100436.13;;;4.74;100.00
21203;BME280;10759;51.982;9.232;2023-02-02T01:09:25;100442.25;;;4.79;100.00
21203;BME280;10759;51.982;9.232;2023-02-02T01:11:53;100435.09;;;4.86;100.00
21203;BME280;10759;51.982;9.232;2023-02-02T01:14:21;100440.47;;;4.81;100.00
21203;BME280;10759;51.982;9.232;2023-02-02T01:16:49;100443.13;;;4.81;100.00
21203;BME280;10759;51.982;9.232;2023-02-02T01:19:17;100444.97;;;4.76;100.00
21203;BME280;10759;51.982;9.232;2023-02-02T01:21:47;100327.22;;;4.14;100.00
21203;BME280;10759;51.982;9.232;2023-02-02T01:24:18;100422.13;;;4.63;100.00
21203;BME280;10759;51.982;9.232;2023-02-02T01:26:46;100455.53;;;4.79;100.00
21203;BME280;10759;51.982;9.232;2023-02-02T01:29:14;100455.47;;;4.82;100.00
21203;BME280;10759;51.982;9.232;2023-02-02T01:31:42;100465.22;;;4.83;100.00
21203;BME280;10759;51.982;9.232;2023-02-02T01:34:10;100464.28;;;4.87;100.00
21203;BME280;10759;51.982;9.232;2023-02-02T01:36:38;100432.59;;;4.75;100.00
21203;BME280;10759;51.982;9.232;2023-02-02T01:39:07;100471.41;;;4.82;100.00
21203;BME280;10759;51.982;9.232;2023-02-02T01:41:36;100359.97;;;4.11;100.00
21203;BME280;10759;51.982;9.232;2023-02-02T01:44:05;100474.09;;;4.81;100.00
21203;BME280;10759;51.982;9.232;2023-02-02T01:46:35;100461.75;;;4.77;100.00
21203;BME280;10759;51.982;9.232;2023-02-02T01:49:06;100484.63;;;4.90;100.00
21203;BME280;10759;51.982;9.232;2023-02-02T01:51:39;100449.50;;;4.68;100.00
21203;BME280;10759;51.982;9.232;2023-02-02T01:54:12;100479.53;;;4.73;100.00
21203;BME280;10759;51.982;9.232;2023-02-02T01:56:45;100465.28;;;4.80;100.00
21203;BME280;10759;51.982;9.232;2023-02-02T01:59:17;100483.75;;;4.85;100.00
21203;BME280;10759;51.982;9.232;2023-02-02T02:01:46;100473.34;;;4.69;100.00
21203;BME280;10759;51.982;9.232;2023-02-02T02:04:16;100470.84;;;4.57;100.00
21203;BME280;10759;51.982;9.232;2023-02-02T02:06:44;100474.25;;;4.68;100.00
21203;BME280;10759;51.982;9.232;2023-02-02T02:09:16;100480.41;;;4.72;100.00
21203;BME280;10759;51.982;9.232;2023-02-02T02:11:44;100476.09;;;4.63;100.00
21203;BME280;10759;51.982;9.232;2023-02-02T02:14:13;100426.06;;;4.31;100.00
21203;BME280;10759;51.982;9.232;2023-02-02T02:17:08;100488.41;;;4.70;100.00
21203;BME280;10759;51.982;9.232;2023-02-02T02:19:57;100489.47;;;4.56;100.00
21203;BME280;10759;51.982;9.232;2023-02-02T02:23:10;100487.72;;;4.51;100.00
21203;BME280;10759;51.982;9.232;2023-02-02T02:26:12;100493.88;;;4.55;100.00
21203;BME280;10759;51.982;9.232;2023-02-02T02:29:31;100503.69;;;4.45;100.00
21203;BME280;10759;51.982;9.232;2023-02-02T02:32:21;100500.09;;;4.54;100.00
21203;BME280;10759;51.982;9.232;2023-02-02T02:34:54;100510.66;;;4.57;100.00
21203;BME280;10759;51.982;9.232;2023-02-02T02:37:32;100508.13;;;4.48;100.00
21203;BME280;10759;51.982;9.232;2023-02-02T02:40:09;100508.03;;;4.52;100.00
21203;BME280;10759;51.982;9.232;2023-02-02T02:42:42;100508.97;;;4.51;100.00
21203;BME280;10759;51.982;9.232;2023-02-02T02:45:13;100507.22;;;4.49;100.00
21203;BME280;10759;51.982;9.232;2023-02-02T02:47:46;100497.69;;;4.28;100.00
21203;BME280;10759;51.982;9.232;2023-02-02T02:50:15;100519.63;;;4.45;100.00
21203;BME280;10759;51.982;9.232;2023-02-02T02:52:44;100524.91;;;4.48;100.00
21203;BME280;10759;51.982;9.232;2023-02-02T02:55:13;100348.16;;;3.58;100.00
21203;BME280;10759;51.982;9.232;2023-02-02T02:57:55;100518.53;;;4.68;100.00
21203;BME280;10759;51.982;9.232;2023-02-02T03:00:38;100494.81;;;4.49;100.00
21203;BME280;10759;51.982;9.232;2023-02-02T03:03:18;100519.28;;;4.78;100.00
21203;BME280;10759;51.982;9.232;2023-02-02T03:05:52;100519.28;;;4.76;100.00
21203;BME280;10759;51.982;9.232;2023-02-02T03:08:26;100516.66;;;4.76;100.00
21203;BME280;10759;51.982;9.232;2023-02-02T03:10:57;100499.03;;;4.69;100.00
21203;BME280;10759;51.982;9.232;2023-02-02T03:13:28;100517.47;;;4.83;100.00
21203;BME280;10759;51.982;9.232;2023-02-02T03:15:58;100506.00;;;4.78;100.00
21203;BME280;10759;51.982;9.232;2023-02-02T03:18:29;100483.97;;;4.71;100.00
21203;BME280;10759;51.982;9.232;2023-02-02T03:20:58;100384.69;;;4.15;100.00
21203;BME280;10759;51.982;9.232;2023-02-02T03:23:26;100523.72;;;4.76;100.00
21203;BME280;10759;51.982;9.232;2023-02-02T03:25:54;100520.16;;;4.77;100.00
21203;BME280;10759;51.982;9.232;2023-02-02T03:28:23;100466.50;;;4.51;100.00
21203;BME280;10759;51.982;9.232;2023-02-02T03:30:52;100515.63;;;4.86;100.00
21203;BME280;10759;51.982;9.232;2023-02-02T03:33:21;100515.72;;;4.79;100.00
21203;BME280;10759;51.982;9.232;2023-02-02T03:35:52;100412.84;;;4.25;100.00
21203;BME280;10759;51.982;9.232;2023-02-02T03:38:20;100522.66;;;4.90;100.00
21203;BME280;10759;51.982;9.232;2023-02-02T03:40:49;100526.19;;;4.89;100.00
21203;BME280;10759;51.982;9.232;2023-02-02T03:43:21;100533.34;;;4.87;100.00
21203;BME280;10759;51.982;9.232;2023-02-02T03:45:54;100535.03;;;4.91;100.00
21203;BME280;10759;51.982;9.232;2023-02-02T03:48:23;100532.28;;;4.99;100.00
21203;BME280;10759;51.982;9.232;2023-02-02T03:50:52;100535.09;;;4.88;100.00
21203;BME280;10759;51.982;9.232;2023-02-02T03:53:20;100535.03;;;4.91;100.00
21203;BME280;10759;51.982;9.232;2023-02-02T03:55:49;100536.78;;;4.95;100.00
21203;BME280;10759;51.982;9.232;2023-02-02T03:58:16;100531.44;;;4.95;100.00
21203;BME280;10759;51.982;9.232;2023-02-02T04:00:48;100390.03;;;4.10;100.00
21203;BME280;10759;51.982;9.232;2023-02-02T04:03:16;100545.66;;;4.91;100.00
21203;BME280;10759;51.982;9.232;2023-02-02T04:05:48;100526.25;;;4.86;100.00
21203;BME280;10759;51.982;9.232;2023-02-02T04:08:17;100531.50;;;4.89;100.00
21203;BME280;10759;51.982;9.232;2023-02-02T04:10:45;100553.53;;;5.01;100.00
21203;BME280;10759;51.982;9.232;2023-02-02T04:13:13;100411.25;;;4.10;100.00
21203;BME280;10759;51.982;9.232;2023-02-02T04:15:41;100551.94;;;4.87;100.00
21203;BME280;10759;51.982;9.232;2023-02-02T04:18:09;100552.63;;;5.02;100.00
21203;BME280;10759;51.982;9.232;2023-02-02T04:20:37;100527.25;;;4.74;100.00
21203;BME280;10759;51.982;9.232;2023-02-02T04:23:04;100551.81;;;4.95;100.00
21203;BME280;10759;51.982;9.232;2023-02-02T04:25:34;100506.03;;;4.74;100.00
21203;BME280;10759;51.982;9.232;2023-02-02T04:28:02;100560.53;;;5.06;100.00
21203;BME280;10759;51.982;9.232;2023-02-02T04:30:30;100523.59;;;4.85;100.00
21203;BME280;10759;51.982;9.232;2023-02-02T04:32:58;100528.03;;;4.84;100.00
21203;BME280;10759;51.982;9.232;2023-02-02T04:35:26;100565.03;;;5.01;100.00
21203;BME280;10759;51.982;9.232;2023-02-02T04:37:54;100570.31;;;5.03;100.00
21203;BME280;10759;51.982;9.232;2023-02-02T04:40:22;100437.50;;;4.33;100.00
21203;BME280;10759;51.982;9.232;2023-02-02T04:42:52;100557.25;;;4.86;100.00
21203;BME280;10759;51.982;9.232;2023-02-02T04:45:19;100580.91;;;5.04;100.00
21203;BME280;10759;51.982;9.232;2023-02-02T04:47:48;100557.16;;;4.95;100.00
21203;BME280;10759;51.982;9.232;2023-02-02T04:50:16;100572.78;;;5.18;100.00
21203;BME280;10759;51.982;9.232;2023-02-02T04:52:44;100444.44;;;4.45;100.00
21203;BME280;10759;51.982;9.232;2023-02-02T04:55:12;100577.28;;;5.13;100.00
21203;BME280;10759;51.982;9.232;2023-02-02T04:57:40;100576.38;;;5.14;100.00
21203;BME280;10759;51.982;9.232;2023-02-02T05:00:10;100575.53;;;5.12;100.00
21203;BME280;10759;51.982;9.232;2023-02-02T05:02:40;100553.66;;;4.90;100.00
21203;BME280;10759;51.982;9.232;2023-02-02T05:05:11;100572.78;;;5.16;100.00
21203;BME280;10759;51.982;9.232;2023-02-02T05:07:40;100577.28;;;5.14;100.00
21203;BME280;10759;51.982;9.232;2023-02-02T05:10:09;100564.75;;;5.21;100.00
21203;BME280;10759;51.982;9.232;2023-02-02T05:12:37;100530.59;;;4.92;100.00
21203;BME280;10759;51.982;9.232;2023-02-02T05:15:06;100522.66;;;4.90;100.00
21203;BME280;10759;51.982;9.232;2023-02-02T05:17:35;100554.28;;;5.12;100.00
21203;BME280;10759;51.982;9.232;2023-02-02T05:20:03;100572.06;;;5.04;100.00
21203;BME280;10759;51.982;9.232;2023-02-02T05:22:31;100531.56;;;4.86;100.00
21203;BME280;10759;51.982;9.232;2023-02-02T05:25:00;100579.84;;;5.19;100.00
21203;BME280;10759;51.982;9.232;2023-02-02T05:27:29;100550.09;;;4.92;100.00
21203;BME280;10759;51.982;9.232;2023-02-02T05:29:57;100542.03;;;4.97;100.00
21203;BME280;10759;51.982;9.232;2023-02-02T05:32:26;100586.16;;;5.12;100.00
21203;BME280;10759;51.982;9.232;2023-02-02T05:34:56;100592.41;;;5.06;100.00
21203;BME280;10759;51.982;9.232;2023-02-02T05:37:24;100351.44;;;3.81;100.00
21203;BME280;10759;51.982;9.232;2023-02-02T05:39:52;100590.50;;;5.18;100.00
21203;BME280;10759;51.982;9.232;2023-02-02T05:42:20;100600.13;;;5.28;100.00
21203;BME280;10759;51.982;9.232;2023-02-02T05:44:48;100592.97;;;5.31;100.00
21203;BME280;10759;51.982;9.232;2023-02-02T05:47:16;100602.75;;;5.29;100.00
21203;BME280;10759;51.982;9.232;2023-02-02T05:49:44;100595.63;;;5.34;100.00
21203;BME280;10759;51.982;9.232;2023-02-02T05:52:15;100553.47;;;5.05;100.00
21203;BME280;10759;51.982;9.232;2023-02-02T05:54:44;100597.38;;;5.34;100.00
21203;BME280;10759;51.982;9.232;2023-02-02T05:57:12;100588.63;;;5.27;100.00
21203;BME280;10759;51.982;9.232;2023-02-02T05:59:40;100599.16;;;5.33;100.00
21203;BME280;10759;51.982;9.232;2023-02-02T06:02:08;100566.75;;;5.05;100.00
21203;BME280;10759;51.982;9.232;2023-02-02T06:04:36;100566.72;;;5.07;100.00
21203;BME280;10759;51.982;9.232;2023-02-02T06:07:04;100601.03;;;5.27;100.00
21203;BME280;10759;51.982;9.232;2023-02-02T06:09:33;100600.13;;;5.26;100.00
21203;BME280;10759;51.982;9.232;2023-02-02T06:12:02;100603.59;;;5.34;100.00
21203;BME280;10759;51.982;9.232;2023-02-02T06:14:30;100571.09;;;5.12;100.00
21203;BME280;10759;51.982;9.232;2023-02-02T06:16:58;100608.09;;;5.29;100.00
21203;BME280;10759;51.982;9.232;2023-02-02T06:19:26;100596.63;;;5.24;100.00
21203;BME280;10759;51.982;9.232;2023-02-02T06:21:54;100608.91;;;5.31;100.00
21203;BME280;10759;51.982;9.232;2023-02-02T06:24:22;100601.03;;;5.27;100.00
21203;BME280;10759;51.982;9.232;2023-02-02T06:26:52;100634.72;;;5.25;100.00
21203;BME280;10759;51.982;9.232;2023-02-02T06:29:20;100617.03;;;5.22;100.00
21203;BME280;10759;51.982;9.232;2023-02-02T06:31:48;100630.28;;;5.24;100.00
21203;BME280;10759;51.982;9.232;2023-02-02T06:34:16;100630.28;;;5.24;100.00
21203;BME280;10759;51.982;9.232;2023-02-02T06:36:45;100629.41;;;5.23;100.00
21203;BME280;10759;51.982;9.232;2023-02-02T06:39:12;100590.75;;;4.94;100.00
21203;BME280;10759;51.982;9.232;2023-02-02T06:41:40;100648.09;;;5.17;100.00
21203;BME280;10759;51.982;9.232;2023-02-02T06:44:13;100648.09;;;5.14;100.00
21203;BME280;10759;51.982;9.232;2023-02-02T06:46:41;100651.63;;;5.16;100.00
21203;BME280;10759;51.982;9.232;2023-02-02T06:49:09;100653.44;;;5.12;100.00
21203;BME280;10759;51.982;9.232;2023-02-02T06:51:37;100572.63;;;4.55;100.00
21203;BME280;10759;51.982;9.232;2023-02-02T06:54:05;100661.38;;;5.14;100.00
21203;BME280;10759;51.982;9.232;2023-02-02T06:56:33;100666.75;;;5.09;100.00
21203;BME280;10759;51.982;9.232;2023-02-02T06:59:01;100661.56;;;4.99;100.00
21203;BME280;10759;51.982;9.232;2023-02-02T07:01:30;100666.91;;;4.95;100.00
21203;BME280;10759;51.982;9.232;2023-02-02T07:03:58;100660.75;;;4.90;100.00
21203;BME280;10759;51.982;9.232;2023-02-02T07:06:27;100512.94;;;4.07;100.00
21203;BME280;10759;51.982;9.232;2023-02-02T07:08:56;100670.44;;;4.96;100.00
21203;BME280;10759;51.982;9.232;2023-02-02T07:11:29;100673.09;;;4.98;100.00
21203;BME280;10759;51.982;9.232;2023-02-02T07:13:58;100622.09;;;4.62;100.00
21203;BME280;10759;51.982;9.232;2023-02-02T07:16:26;100675.88;;;4.85;100.00
21203;BME280;10759;51.982;9.232;2023-02-02T07:18:55;100668.03;;;4.73;100.00
21203;BME280;10759;51.982;9.232;2023-02-02T07:21:25;100639.97;;;4.44;100.00
21203;BME280;10759;51.982;9.232;2023-02-02T07:23:53;100685.78;;;4.65;100.00
21203;BME280;10759;51.982;9.232;2023-02-02T07:26:21;100676.16;;;4.50;100.00
21203;BME280;10759;51.982;9.232;2023-02-02T07:28:50;100693.69;;;4.69;100.00
21203;BME280;10759;51.982;9.232;2023-02-02T07:31:20;100703.41;;;4.75;100.00
21203;BME280;10759;51.982;9.232;2023-02-02T07:33:49;100707.75;;;4.82;100.00
21203;BME280;10759;51.982;9.232;2023-02-02T07:36:20;100695.56;;;4.60;100.00
21203;BME280;10759;51.982;9.232;2023-02-02T07:38:50;100693.63;;;4.77;100.00
21203;BME280;10759;51.982;9.232;2023-02-02T07:41:19;100657.63;;;4.48;100.00
21203;BME280;10759;51.982;9.232;2023-02-02T07:43:48;100704.34;;;4.68;100.00
21203;BME280;10759;51.982;9.232;2023-02-02T07:46:17;100705.16;;;4.76;100.00
21203;BME280;10759;51.982;9.232;2023-02-02T07:48:45;100704.31;;;4.69;100.00
21203;BME280;10759;51.982;9.232;2023-02-02T07:51:15;100717.66;;;4.62;100.00
21203;BME280;10759;51.982;9.232;2023-02-02T07:53:46;100715.06;;;4.54;100.00
21203;BME280;10759;51.982;9.232;2023-02-02T07:56:16;100715.06;;;4.52;100.00
21203;BME280;10759;51.982;9.232;2023-02-02T07:58:44;100719.63;;;4.38;100.00
21203;BME280;10759;51.982;9.232;2023-02-02T08:01:14;100724.91;;;4.41;100.00
21203;BME280;10759;51.982;9.232;2023-02-02T08:03:43;100723.13;;;4.42;100.00
21203;BME280;10759;51.982;9.232;2023-02-02T08:06:13;100726.63;;;4.45;100.00
21203;BME280;10759;51.982;9.232;2023-02-02T08:08:42;100732.81;;;4.47;100.00
21203;BME280;10759;51.982;9.232;2023-02-02T08:11:14;100727.53;;;4.44;100.00
21203;BME280;10759;51.982;9.232;2023-02-02T08:13:42;100725.66;;;4.57;100.00
21203;BME280;10759;51.982;9.232;2023-02-02T08:16:11;100742.41;;;4.67;100.00
21203;BME280;10759;51.982;9.232;2023-02-02T08:18:40;100743.25;;;4.75;100.00
21203;BME280;10759;51.982;9.232;2023-02-02T08:21:09;100740.78;;;4.50;100.00
21203;BME280;10759;51.982;9.232;2023-02-02T08:23:39;100737.25;;;4.47;100.00
21203;BME280;10759;51.982;9.232;2023-02-02T08:26:09;100736.47;;;4.36;100.00
21203;BME280;10759;51.982;9.232;2023-02-02T08:28:39;100754.91;;;4.49;100.00
21203;BME280;10759;51.982;9.232;2023-02-02T08:31:11;100755.03;;;4.34;100.00
21203;BME280;10759;51.982;9.232;2023-02-02T08:33:39;100753.16;;;4.48;100.00
21203;BME280;10759;51.982;9.232;2023-02-02T08:36:10;100758.38;;;4.58;100.00
21203;BME280;10759;51.982;9.232;2023-02-02T08:38:39;100760.25;;;4.46;100.00
21203;BME280;10759;51.982;9.232;2023-02-02T08:41:09;100762.94;;;4.43;100.00
21203;BME280;10759;51.982;9.232;2023-02-02T08:43:39;100634.28;;;3.73;100.00
21203;BME280;10759;51.982;9.232;2023-02-02T08:46:09;100770.81;;;4.52;100.00
21203;BME280;10759;51.982;9.232;2023-02-02T08:48:38;100771.66;;;4.61;100.00
21203;BME280;10759;51.982;9.232;2023-02-02T08:51:08;100781.38;;;4.62;100.00
21203;BME280;10759;51.982;9.232;2023-02-02T08:53:36;100784.91;;;4.65;100.00
21203;BME280;10759;51.982;9.232;2023-02-02T08:56:06;100786.66;;;4.68;100.00
21203;BME280;10759;51.982;9.232;2023-02-02T08:58:34;100793.84;;;4.50;100.00
21203;BME280;10759;51.982;9.232;2023-02-02T09:01:05;100792.91;;;4.59;100.00
21203;BME280;10759;51.982;9.232;2023-02-02T09:03:34;100794.66;;;4.62;100.00
21203;BME280;10759;51.982;9.232;2023-02-02T09:06:05;100802.56;;;4.69;100.00
21203;BME280;10759;51.982;9.232;2023-02-02T09:08:33;100791.84;;;4.82;100.00
21203;BME280;10759;51.982;9.232;2023-02-02T09:11:03;100751.41;;;4.50;100.00
21203;BME280;10759;51.982;9.232;2023-02-02T09:13:32;100799.84;;;4.77;100.00
21203;BME280;10759;51.982;9.232;2023-02-02T09:16:00;100784.88;;;4.67;100.00
21203;BME280;10759;51.982;9.232;2023-02-02T09:18:30;100803.25;;;4.94;100.00
21203;BME280;10759;51.982;9.232;2023-02-02T09:20:59;100798.03;;;4.84;100.00
21203;BME280;10759;51.982;9.232;2023-02-02T09:23:28;100804.19;;;4.89;100.00
21203;BME280;10759;51.982;9.232;2023-02-02T09:25:56;100811.38;;;4.76;100.00
21203;BME280;10759;51.982;9.232;2023-02-02T09:28:25;100816.72;;;4.70;100.00
21203;BME280;10759;51.982;9.232;2023-02-02T09:30:53;100820.25;;;4.69;100.00
21203;BME280;10759;51.982;9.232;2023-02-02T09:33:21;100827.31;;;4.73;100.00
21203;BME280;10759;51.982;9.232;2023-02-02T09:35:51;100830.78;;;4.87;100.00
21203;BME280;10759;51.982;9.232;2023-02-02T09:38:18;100816.81;;;4.56;100.00
21203;BME280;10759;51.982;9.232;2023-02-02T09:40:46;100835.34;;;4.64;100.00
21203;BME280;10759;51.982;9.232;2023-02-02T09:43:25;100837.09;;;4.68;100.00
21203;BME280;10759;51.982;9.232;2023-02-02T09:46:04;100832.69;;;4.65;100.00
21203;BME280;10759;51.982;9.232;2023-02-02T09:48:40;100840.59;;;4.71;100.00
21203;BME280;10759;51.982;9.232;2023-02-02T09:51:18;100843.19;;;4.85;100.00
21203;BME280;10759;51.982;9.232;2023-02-02T09:53:51;100851.09;;;4.93;100.00
21203;BME280;10759;51.982;9.232;2023-02-02T09:56:23;100854.63;;;4.95;100.00
21203;BME280;10759;51.982;9.232;2023-02-02T09:58:53;100862.56;;;5.00;100.00
21203;BME280;10759;51.982;9.232;2023-02-02T10:01:30;100844.03;;;4.89;100.00
21203;BME280;10759;51.982;9.232;2023-02-02T10:04:03;100846.84;;;4.66;100.00
21203;BME280;10759;51.982;9.232;2023-02-02T10:06:37;100857.34;;;4.87;100.00
21203;BME280;10759;51.982;9.232;2023-02-02T10:09:24;100869.66;;;4.96;100.00
21203;BME280;10759;51.982;9.232;2023-02-02T10:11:59;100863.44;;;4.99;100.00
21203;BME280;10759;51.982;9.232;2023-02-02T10:14:32;100879.34;;;5.02;100.00
21203;BME280;10759;51.982;9.232;2023-02-02T10:17:23;100852.00;;;4.90;100.00
21203;BME280;10759;51.982;9.232;2023-02-02T10:19:56;100862.56;;;5.00;100.00
21203;BME280;10759;51.982;9.232;2023-02-02T10:22:31;100848.31;;;5.07;100.00
21203;BME280;10759;51.982;9.232;2023-02-02T10:25:00;100887.22;;;5.17;100.00
21203;BME280;10759;51.982;9.232;2023-02-02T10:27:35;100862.47;;;5.12;100.00
21203;BME280;10759;51.982;9.232;2023-02-02T10:30:10;100870.44;;;5.09;100.00
21203;BME280;10759;51.982;9.232;2023-02-02T10:32:46;100883.59;;;5.27;100.00
21203;BME280;10759;51.982;9.232;2023-02-02T10:35:27;100858.91;;;5.14;100.00
21203;BME280;10759;51.982;9.232;2023-02-02T10:38:02;100878.31;;;5.24;100.00
21203;BME280;10759;51.982;9.232;2023-02-02T10:40:44;100893.34;;;5.25;100.00
21203;BME280;10759;51.982;9.232;2023-02-02T10:43:26;100885.19;;;5.44;100.00
21203;BME280;10759;51.982;9.232;2023-02-02T10:46:15;100885.16;;;5.50;100.00
21203;BME280;10759;51.982;9.232;2023-02-02T10:48:45;100874.56;;;5.44;100.00
21203;BME280;10759;51.982;9.232;2023-02-02T10:51:19;100876.38;;;5.42;100.00
21203;BME280;10759;51.982;9.232;2023-02-02T10:53:51;100890.50;;;5.47;100.00
21203;BME280;10759;51.982;9.232;2023-02-02T10:56:22;100900.28;;;5.43;100.00
21203;BME280;10759;51.982;9.232;2023-02-02T10:58:58;100888.69;;;5.49;100.00
21203;BME280;10759;51.982;9.232;2023-02-02T11:01:28;100900.22;;;5.52;100.00
21203;BME280;10759;51.982;9.232;2023-02-02T11:03:56;100898.34;;;5.64;100.00
21203;BME280;10759;51.982;9.232;2023-02-02T11:06:41;100867.53;;;5.38;100.00
21203;BME280;10759;51.982;9.232;2023-02-02T11:09:21;100889.66;;;5.45;100.00
21203;BME280;10759;51.982;9.232;2023-02-02T11:11:53;100863.25;;;5.23;100.00
21203;BME280;10759;51.982;9.232;2023-02-02T11:14:29;100894.00;;;5.49;100.00
21203;BME280;10759;51.982;9.232;2023-02-02T11:17:18;100895.69;;;5.62;100.00
21203;BME280;10759;51.982;9.232;2023-02-02T11:19:47;100899.25;;;5.58;100.00
21203;BME280;10759;51.982;9.232;2023-02-02T11:22:28;100900.16;;;5.55;100.00
21203;BME280;10759;51.982;9.232;2023-02-02T11:25:00;100875.44;;;5.46;100.00
21203;BME280;10759;51.982;9.232;2023-02-02T11:27:31;100917.69;;;5.78;100.00
21203;BME280;10759;51.982;9.232;2023-02-02T11:30:11;100911.53;;;5.76;100.00
21203;BME280;10759;51.982;9.232;2023-02-02T11:32:39;100907.28;;;5.56;100.00
21203;BME280;10759;51.982;9.232;2023-02-02T11:35:17;100904.56;;;5.58;100.00
21203;BME280;10759;51.982;9.232;2023-02-02T11:37:58;100903.59;;;5.68;100.00
21203;BME280;10759;51.982;9.232;2023-02-02T11:40:32;100885.88;;;5.67;100.00
21203;BME280;10759;51.982;9.232;2023-02-02T11:43:03;100909.63;;;5.86;100.00
21203;BME280;10759;51.982;9.232;2023-02-02T11:45:35;100910.56;;;5.80;100.00
21203;BME280;10759;51.982;9.232;2023-02-02T11:48:06;100915.06;;;5.75;100.00
21203;BME280;10759;51.982;9.232;2023-02-02T11:50:34;100901.69;;;5.82;100.00
21203;BME280;10759;51.982;9.232;2023-02-02T11:53:03;100908.78;;;5.80;100.00
21203;BME280;10759;51.982;9.232;2023-02-02T11:55:33;100907.00;;;5.84;100.00
21203;BME280;10759;51.982;9.232;2023-02-02T11:58:19;100906.13;;;5.84;100.00
21203;BME280;10759;51.982;9.232;2023-02-02T12:00:53;100922.94;;;5.84;100.00
21203;BME280;10759;51.982;9.232;2023-02-02T12:03:27;100819.78;;;5.32;100.00
21203;BME280;10759;51.982;9.232;2023-02-02T12:05:57;100906.19;;;5.76;100.00
21203;BME280;10759;51.982;9.232;2023-02-02T12:08:30;100899.19;;;5.67;100.00
21203;BME280;10759;51.982;9.232;2023-02-02T12:11:01;100920.28;;;5.82;100.00
21203;BME280;10759;51.982;9.232;2023-02-02T12:13:47;100911.47;;;5.77;100.00
21203;BME280;10759;51.982;9.232;2023-02-02T12:16:29;100846.25;;;5.41;100.00
21203;BME280;10759;51.982;9.232;2023-02-02T12:19:12;100908.91;;;5.68;100.00
21203;BME280;10759;51.982;9.232;2023-02-02T12:21:48;100917.56;;;5.90;100.00
21203;BME280;10759;51.982;9.232;2023-02-02T12:24:27;100933.59;;;5.82;100.00
21203;BME280;10759;51.982;9.232;2023-02-02T12:27:11;100922.88;;;5.96;100.00
21203;BME280;10759;51.982;9.232;2023-02-02T12:29:54;100923.78;;;5.94;100.00
21203;BME280;10759;51.982;9.232;2023-02-02T12:32:42;100896.41;;;5.78;100.00
21203;BME280;10759;51.982;9.232;2023-02-02T12:35:37;100930.91;;;5.89;100.00
21203;BME280;10759;51.982;9.232;2023-02-02T12:38:14;100929.06;;;5.97;100.00
21203;BME280;10759;51.982;9.232;2023-02-02T12:41:04;100925.69;;;5.73;100.00
21203;BME280;10759;51.982;9.232;2023-02-02T12:43:40;100932.72;;;5.80;100.00
21203;BME280;10759;51.982;9.232;2023-02-02T12:46:24;100923.78;;;5.89;100.00
21203;BME280;10759;51.982;9.232;2023-02-02T12:49:05;100924.69;;;5.87;100.00
21203;BME280;10759;51.982;9.232;2023-02-02T12:51:52;100901.94;;;5.55;100.00
21203;BME280;10759;51.982;9.232;2023-02-02T12:54:36;100924.81;;;5.76;100.00
21203;BME280;10759;51.982;9.232;2023-02-02T12:57:23;100910.63;;;5.75;100.00
21203;BME280;10759;51.982;9.232;2023-02-02T13:00:18;100910.59;;;5.78;100.00
21203;BME280;10759;51.982;9.232;2023-02-02T13:03:02;100907.03;;;5.78;100.00
21203;BME280;10759;51.982;9.232;2023-02-02T13:05:41;100926.44;;;5.91;100.00
21203;BME280;10759;51.982;9.232;2023-02-02T13:08:16;100931.75;;;5.94;100.00
21203;BME280;10759;51.982;9.232;2023-02-02T13:10:49;100927.28;;;5.99;100.00
21203;BME280;10759;51.982;9.232;2023-02-02T13:13:23;100928.09;;;6.04;100.00
21203;BME280;10759;51.982;9.232;2023-02-02T13:15:57;100929.19;;;5.81;100.00